Aviation Digital Data Service (ADDS)

Output produced by METARs form (0016 UTC 24 May 2022)
found at http://www.aviationweather.gov/metar/data/
 
TAF CYXX 232340Z 2400/2424 20010KT P6SM SCT060 BKN080 
     TEMPO 2400/2406 P6SM -SHRA BKN050 OVC080 
     FM240600 20008KT P6SM SCT050 
     TEMPO 2406/2412 BKN050 
     FM241200 VRB03KT P6SM SCT030 BKN180 
     FM241500 20006KT P6SM BKN050 BKN120 RMK NXT FCST BY 240600Z
       
TAF CYEK 232340Z 2400/2412 04020G30KT 3/4SM -SHSN BKN005 OVC010 
     TEMPO 2400/2404 3SM -SN SCT010 OVC020 
     BECMG 2402/2404 01018G28KT 
     FM240400 01018G28KT P6SM -SN SCT010 OVC030 
     TEMPO 2404/2408 2SM -SN FEW005 OVC010 
     BECMG 2406/2408 33015G25KT 
     FM240800 33015G25KT P6SM SCT012 BKN030 
     TEMPO 2408/2412 2 1/4SM -SN BKN015 OVC030 RMK NXT FCST BY 240600Z
       
TAF CYBG 232340Z 2400/2424 32005KT P6SM SCT060 
     PROB30 2405/2411 1SM BR 
     FM241400 07008KT P6SM SCT220 RMK NXT FCST BY 240300Z
       
TAF CYBC 231940Z 2320/2408 31008KT P6SM BKN060 
     TEMPO 2320/2402 SCT060 
     BECMG 2320/2322 29010KT 
     FM240200 30006KT P6SM FEW050 RMK FCST BASED ON AUTO OBS. NXT FCST BY
240200Z
       
TAF CYBK 232340Z 2400/2412 30008KT P6SM -SN OVC020 
     TEMPO 2400/2412 P6SM NSW OVC025 RMK NXT FCST BY 240600Z
       
TAF CZBF 231940Z 2320/2403 31010G20KT P6SM SCT050 
     BECMG 2322/2324 30007KT RMK FCST BASED ON AUTO OBS. NXT FCST BY 240900Z
       
TAF CYBR 232340Z 2400/2412 22015G25KT P6SM FEW060 SCT250 
     BECMG 2403/2405 23008KT RMK NXT FCST BY 240600Z
       
TAF CYVT 232040Z 2321/2404 01008KT P6SM SCT180 
     TEMPO 2321/2404 P6SM VCSH SCT050 BKN080 RMK FCST BASED ON AUTO OBS. NXT
FCST BY 241400Z
       
TAF CYDB 232340Z 2400/2412 06005KT P6SM SCT050 SCT080 
     TEMPO 2400/2402 P6SM -SHRA BKN040 
     FM240200 30010KT P6SM SCT008 BKN030 
     TEMPO 2402/2406 2SM -SHRA BR BKN006 
     PROB30 2402/2406 1SM -SHRA BR BKN004 
     FM240600 28006KT 5SM BR BKN020 
     TEMPO 2406/2412 1SM BR BKN008 
     BECMG 2410/2412 VRB03KT RMK FCST BASED ON AUTO OBS. NXT FCST BY 240600Z
       
TAF CYYC 232340Z 2400/2424 VRB03KT P6SM SCT100 
     TEMPO 2400/2410 P6SM VCSH BKN100 
     BECMG 2401/2403 30012KT 
     FM241000 30010KT P6SM BKN080 
     TEMPO 2410/2414 P6SM -SHRA OVC060 
     FM241400 35010KT P6SM SCT030 SCT060 
     TEMPO 2414/2417 P6SM VCSH BKN060 
     FM241700 30010KT P6SM SCT120 
     FM242000 30010KT P6SM SCT060 
     TEMPO 2420/2424 P6SM VCSH BKN060 
     PROB30 2421/2424 VRB15G25KT 5SM TSRA OVC060CB RMK NXT FCST BY 240300Z
       
TAF CYBW 232340Z 2400/2404 32006KT P6SM SCT100 
     TEMPO 2400/2404 P6SM VCSH BKN100 
     BECMG 2401/2403 30012KT RMK FCST BASED ON AUTO OBS. NXT FCST BY 241200Z
       
TAF CYCB 231840Z 2319/2407 27015G25KT P6SM -SN FEW005 SCT020 OVC090 
     TEMPO 2319/2407 4SM -SN BKN020 OVC050 RMK NXT FCST BY 240100Z
       
TAF CYBL 231840Z 2319/2404 07008KT P6SM BKN060 
     TEMPO 2319/2324 P6SM -SHRA FEW025 BKN040 
     BECMG 2401/2403 33008KT RMK NXT FCST BY 240100Z
       
TAF CYTE 231840Z 2319/2407 26015KT P6SM -SN OVC020 
     TEMPO 2319/2407 P6SM NSW OVC025 RMK NXT FCST BY 240100Z
       
TAF CYCG 231840Z 2319/2404 VRB03KT P6SM FEW080 BKN120 BKN200 
     FM232100 36010KT P6SM BKN080 
     TEMPO 2321/2404 P6SM -SHRA VCTS BKN050CB RMK NXT FCST BY 240100Z
       
TAF CYLD 231941Z 2320/2401 VRB03KT P6SM SCT070 
     TEMPO 2320/2401 BKN070 RMK NXT FCST BY 241200Z
       
TAF CYYG 232340Z 2400/2412 35012KT P6SM FEW020 
     BECMG 2400/2402 36008KT RMK NXT FCST BY 240600Z
       
TAF CYMT 231740Z 2318/2324 34007KT P6SM BKN060 
     FM232200 26007KT P6SM SCT060 RMK FCST BASED ON AUTO OBS. NXT FCST BY
241200Z
       
TAF CYYQ 232340Z 2400/2424 33018G28KT P6SM -SHRA FEW005 OVC030 
     TEMPO 2400/2403 3SM -SHSN SCT004 OVC008 
     FM240300 33022G32KT 6SM -SN OVC010 
     TEMPO 2403/2410 2SM -SN BLSN OVC005 
     FM241000 32015G25KT P6SM -SN SCT006 OVC015 
     FM241500 32015G25KT P6SM BKN020 OVC030 RMK NXT FCST BY 240600Z
       
TAF CZUM 231940Z 2320/2408 27008KT P6SM BKN040 
     TEMPO 2320/2402 SCT040 
     FM240200 VRB03KT P6SM FEW040 RMK FCST BASED ON AUTO OBS. NXT FCST BY
240200Z
       
TAF CYCY 232304Z 2319/2407 22012G22KT P6SM SCT050 
     BECMG 2323/2401 22012KT RMK FCST BASED ON AUTO OBS. NXT FCST BY 240100Z
       
TAF CYOD 232340Z 2400/2424 06008KT P6SM FEW040 SCT090 BKN230 
     TEMPO 2400/2401 P6SM -SHRA VCTS SCT030 BKN090CB 
     PROB30 2400/2401 4SM TSRA BR BKN030 OVC090CB 
     FM240100 06008KT P6SM FEW030 BKN090 
     TEMPO 2401/2404 P6SM -SHRA SCT030 OVC070 
     FM240600 07008KT P6SM SCT090 
     BECMG 2407/2409 SCT200 
     FM241700 07010KT P6SM SCT080 BKN150 
     TEMPO 2419/2424 P6SM -SHRA SCT050 BKN080 OVC150 RMK NXT FCST BY 240300Z
       
TAF CYQQ 232340Z 2400/2424 32008KT P6SM BKN070 
     FM241500 VRB03KT P6SM SCT060 OVC150 
     FM242000 12012KT P6SM OVC100 RMK NXT FCST BY 240600Z
       
TAF CYZS 231840Z 2319/2407 28015KT P6SM BKN025 
     TEMPO 2319/2407 P6SM -SN BKN020 
     BECMG 2323/2401 28010KT RMK NXT FCST BY 240100Z
       
TAF CYXC 231840Z 2319/2407 14008KT P6SM SCT080 BKN120 
     TEMPO 2320/2324 P6SM -SHRA VCTS BKN080CB 
     BECMG 2320/2321 22010KT 
     FM240000 22006KT P6SM BKN080 
     TEMPO 2400/2403 P6SM -SHRA 
     FM240300 VRB03KT P6SM SCT080 RMK NXT FCST BY 240100Z
       
TAF CYDN 232340Z 2400/2412 24012KT P6SM FEW100 SCT250 
     BECMG 2409/2411 30008KT RMK FCST BASED ON AUTO OBS. NXT FCST BY 240600Z
       
TAF CYDA 231540Z 2316/2323 22008KT P6SM SCT060 
     TEMPO 2316/2320 BKN040 
     FM232000 08006KT P6SM BKN060 
     TEMPO 2320/2323 P6SM -SHRA RMK NXT FCST BY 241600Z
       
TAF CYDQ 231840Z 2319/2405 26010G20KT P6SM SCT120 SCT200 
     FM232100 25015G25KT P6SM BKN090 
     FM240300 25015KT P6SM BKN080 
     TEMPO 2403/2405 P6SM -SHRA RMK FCST BASED ON AUTO OBS. NXT FCST BY 240100Z
       
TAF AMD CYDF 232214Z 2322/2408 35007KT P6SM OVC020 
     TEMPO 2322/2402 SCT020 OVC030 
     FM240200 01007KT P6SM FEW030 RMK NXT FCST BY 240200Z
       
TAF CYHD 231940Z 2320/2408 23012G22KT P6SM SCT070 BKN150 
     TEMPO 2320/2402 P6SM -SHRA BKN070 BKN150 
     BECMG 2400/2402 21008KT RMK FCST BASED ON AUTO OBS. NXT FCST BY 240200Z
       
TAF CYXR 231740Z 2318/2324 29007KT P6SM BKN060 
     BECMG 2322/2324 VRB03KT RMK FCST BASED ON AUTO OBS. NXT FCST BY 241200Z
       
TAF CYEG 232340Z 2400/2424 VRB03KT P6SM SCT100 
     TEMPO 2400/2409 VRB12G22KT P6SM VCSH BKN100 
     FM240900 30012KT P6SM SCT100 
     FM241600 33010KT P6SM SCT040 BKN100 
     TEMPO 2416/2424 P6SM -SHRA BKN050 
     PROB30 2421/2424 VRB15G25KT 5SM TSRA OVC050CB RMK NXT FCST BY 240300Z
       
TAF CZVL 232340Z 2400/2412 27008KT P6SM SCT100 
     TEMPO 2400/2409 VRB12G22KT P6SM VCSH BKN100 
     FM240900 30012KT P6SM SCT100 RMK FCST BASED ON AUTO OBS. NXT FCST BY
240600Z
       
TAF AMD CYEN 232154Z 2321/2324 19015G25KT P6SM SCT080 RMK FCST BASED ON AUTO
OBS. NXT FCST BY 241200Z
       
TAF CYEU 232344Z 2400/2402 36010KT P6SM SCT060 BKN150 
     TEMPO 2400/2402 5SM -SN SCT015 BKN060 RMK ADVISORY OFFSITE. NXT FCST BY
241100Z
       
TAF CZFA 231740Z 2318/2322 VRB03KT P6SM SCT030 BKN050 
     TEMPO 2318/2322 5SM -SHRA BR BKN020 
     BECMG 2319/2321 23006KT RMK NXT FCST BY 241600Z
       
TAF CYPY 232340Z 2400/2406 12008KT P6SM SCT060 SCT240 RMK FCST BASED ON AUTO
OBS. NXT FCST BY 241200Z
       
TAF CYMM 231840Z 2319/2407 31008KT P6SM SCT240 
     TEMPO 2319/2321 BKN100 
     FM232100 36008KT P6SM SCT040 SCT070 BKN100 
     TEMPO 2321/2407 SCT040 BKN070 
     BECMG 2323/2401 03008KT RMK FCST BASED ON AUTO OBS. NXT FCST BY 240100Z
       
TAF CYYE 231840Z 2319/2407 34006KT P6SM SCT040 SCT120 
     TEMPO 2319/2324 BKN030 BKN120 
     FM240000 35006KT P6SM BKN060 
     TEMPO 2400/2404 3SM -SHRA BR BKN050 
     FM240400 VRB03KT P6SM SCT015 BKN040 
     TEMPO 2404/2407 2SM -SHRA BR SCT005 BKN012 
     PROB30 2404/2407 1SM -SHRA BR BKN005 RMK NXT FCST BY 240100Z
       
TAF CYFS 232340Z 2400/2412 30004KT P6SM FEW030 BKN050 BKN080 
     TEMPO 2400/2412 P6SM -SHRA BKN030 OVC050 RMK NXT FCST BY 240600Z
       
TAF CYSM 232340Z 2400/2412 33005KT P6SM SCT050 
     FM240600 VRB03KT P6SM SKC RMK NXT FCST BY 240600Z
       
TAF CYXJ 231840Z 2319/2407 24010G20KT P6SM SCT080 SCT120 BKN240 
     FM232100 24015KT P6SM BKN100 BKN200 
     FM240000 24012KT P6SM BKN080 
     TEMPO 2400/2403 P6SM -SHRA BKN070 
     FM240300 29010KT P6SM BKN080 
     TEMPO 2403/2407 5SM -SHRA BR BKN060 
     BECMG 2404/2406 01006KT RMK NXT FCST BY 240100Z
       
TAF CYFC 232340Z 2400/2412 34010KT P6SM SCT050 
     BECMG 2400/2402 35008KT 
     FM240600 01005KT P6SM FEW050 RMK FCST BASED ON AUTO OBS. NXT FCST BY
240600Z
       
TAF CYQX 232340Z 2400/2424 01015G25KT 5SM -SHRA BR BKN003 OVC008 
     TEMPO 2400/2401 P6SM NSW OVC015 
     FM240100 01012KT P6SM BKN012 OVC030 
     TEMPO 2401/2406 SCT012 BKN030 
     FM240600 01008KT P6SM SCT030 
     BECMG 2410/2412 01015KT 
     BECMG 2422/2424 06008KT RMK NXT FCST BY 240600Z
       
TAF CYGP 231940Z 2320/2408 32012G22KT P6SM FEW040 
     BECMG 2322/2324 30006KT RMK NXT FCST BY 240200Z
       
TAF CYND 231740Z 2318/2401 VRB03KT P6SM BKN060 RMK NXT FCST BY 241300Z
       
TAF CYGQ 231940Z 2320/2408 22008G18KT P6SM SCT080 
     TEMPO 2320/2402 BKN080 
     BECMG 2400/2402 20010KT RMK FCST BASED ON AUTO OBS. NXT FCST BY 240200Z
       
TAF CYHK 232340Z 2400/2412 30015KT 4SM -SN BR BKN015 OVC025 
     TEMPO 2400/2412 P6SM NSW SCT012 BKN025 
     BECMG 2400/2402 30010KT RMK NXT FCST BY 240600Z
       
TAF CYYR 232340Z 2400/2424 31005KT P6SM FEW050 
     BECMG 2415/2417 29010KT BKN060 RMK NXT FCST BY 240600Z
       
TAF CYZE 231940Z 2320/2322 24007KT P6SM SKC RMK FCST BASED ON AUTO OBS. NXT FCST
BY 241000Z
       
TAF CYQU 231840Z 2319/2407 26018G28KT P6SM FEW090 FEW270 
     FM232100 27018G28KT P6SM SCT100 BKN240 
     FM232300 26022KT P6SM SCT100 
     TEMPO 2323/2407 BKN100 BKN200 
     BECMG 2402/2404 26012KT RMK NXT FCST BY 240100Z
       
TAF CYZX 232340Z 2400/2424 05008KT P6SM BKN250 
     FM241200 02010KT P6SM SCT250 
     FM241600 02010KT P6SM FEW040 SCT250 
     FM242200 06010KT P6SM SCT160 RMK NXT FCST BY 240600Z
       
TAF CYHZ 232340Z 2400/2424 03010G20KT P6SM SCT020 
     TEMPO 2400/2402 BKN020 
     FM240200 01010G20KT P6SM FEW020 
     FM241500 03012KT P6SM SCT040 
     FM242100 04012KT P6SM SKC RMK NXT FCST BY 240300Z
       
TAF CYUX 231840Z 2319/2407 27018G28KT P6SM -SN FEW005 SCT020 BKN040 
     TEMPO 2319/2407 1SM -SN BR SCT005 OVC020 RMK NXT FCST BY 240100Z
       
TAF CYHM 232340Z 2400/2424 06005KT P6SM FEW070 BKN260 
     FM241500 05012KT P6SM FEW040 SCT140 
     BECMG 2422/2424 05008KT RMK NXT FCST BY 240600Z
       
TAF CYGV 231940Z 2320/2408 32012G22KT P6SM SCT060 
     TEMPO 2320/2402 BKN060 
     BECMG 2322/2324 36005KT 
     FM240200 VRB03KT P6SM SKC RMK FCST BASED ON AUTO OBS. NXT FCST BY 240200Z
       
TAF CYHY 232340Z 2400/2412 09010KT P6SM FEW040 BKN240 
     FM240600 10004KT P6SM SCT240 RMK NXT FCST BY 240600Z
       
TAF CYOJ 231840Z 2319/2407 10005KT P6SM OVC050 
     TEMPO 2319/2323 P6SM -SHRA 
     BECMG 2319/2321 06008KT 
     FM232300 06008KT P6SM BKN050 
     TEMPO 2323/2407 P6SM VCSH 
     BECMG 2403/2405 VRB03KT RMK NXT FCST BY 240100Z
       
TAF CYHI 231840Z 2319/2324 28012KT P6SM -SN OVC012 
     TEMPO 2319/2324 2SM -SN OVC008 
     BECMG 2319/2321 27020G30KT RMK NXT FCST BY 241600Z
       
TAF CYGR 231940Z 2320/2402 34015G25KT P6SM FEW140 BKN270 
     BECMG 2322/2324 35012KT RMK NXT FCST BY 241100Z
       
TAF AMD CYEV 231913Z 2319/2407 20006KT P6SM SCT020 RMK NXT FCST BY 240100Z
       
TAF CYFB 232340Z 2400/2424 30010KT P6SM OVC030 
     TEMPO 2400/2415 P6SM -SN OVC020 
     BECMG 2402/2404 VRB03KT 
     FM241500 15010KT P6SM -SN OVC020 
     TEMPO 2415/2418 2SM -SN OVC008 
     FM241800 13015G25KT 4SM -SN OVC015 
     TEMPO 2418/2424 1SM -SN BLSN OVC006 RMK NXT FCST BY 240600Z
       
TAF CYKA 231841Z 2319/2407 VRB03KT P6SM SCT080 BKN120 
     TEMPO 2319/2322 P6SM -SHRA BKN060 OVC100 
     FM232200 27008KT P6SM BKN060 
     TEMPO 2322/2407 P6SM -SHRA RMK NXT FCST BY 240100Z
       
TAF CYAS 231340Z 2314/2321 30015G25KT P6SM -SN BKN020 
     TEMPO 2314/2321 P6SM NSW BKN025 RMK NXT FCST BY 241400Z
       
TAF CYYU 231941Z 2320/2408 20007KT P6SM SCT080 
     BECMG 2400/2402 FEW080 RMK NXT FCST BY 240200Z
       
TAF CYLW 231840Z 2319/2407 24015G25KT P6SM SCT060 BKN120 
     TEMPO 2319/2403 P6SM -SHRA BKN060 
     FM240300 36008KT P6SM BKN080 RMK FCST BASED ON AUTO OBS. NXT FCST BY
240100Z
       
TAF CYQK 231940Z 2320/2408 23012G22KT P6SM SCT060 BKN150 
     TEMPO 2320/2402 P6SM -SHRA BKN060 BKN150 
     BECMG 2400/2402 21008KT RMK NXT FCST BY 240200Z
       
TAF CYKF 231940Z 2320/2408 VRB03KT P6SM BKN050 
     BECMG 2320/2322 12006KT 
     FM240100 VRB03KT P6SM FEW050 RMK FCST BASED ON AUTO OBS. NXT FCST BY
240200Z
       
TAF AMD CYBB 231511Z 2315/2324 27020G30KT 3SM -SN BLSN BKN015 OVC030 
     TEMPO 2315/2324 P6SM NSW SCT015 BKN030 RMK NXT FCST BY 231900Z
       
TAF AMD CYCO 231915Z 2319/2407 32012KT P6SM BKN025 
     TEMPO 2319/2402 5SM -SN OVC020 
     FM240200 03008KT P6SM -SN OVC030 
     TEMPO 2402/2407 3SM -SN BR OVC020 RMK NXT FCST BY 240100Z
       
TAF CYVP 232340Z 2400/2412 25007KT P6SM OVC030 
     TEMPO 2400/2406 P6SM -SN 
     FM240600 20005KT P6SM BKN030 
     BECMG 2406/2408 SCT030 RMK NXT FCST BY 240600Z
       
TAF CYGL 232340Z 2400/2424 27015KT P6SM FEW040 SCT240 
     BECMG 2400/2402 19008KT 
     FM240600 17008KT P6SM SCT060 
     TEMPO 2406/2410 P6SM -SHRA BKN060 
     FM241200 20015G25KT P6SM FEW070 
     BECMG 2415/2417 21020G35KT 
     FM242100 21020G40KT P6SM FEW050 BKN120 
     FM242300 25020G30KT 6SM -SHRA BR FEW012 OVC030 RMK NXT FCST BY 240600Z
       
TAF CYVC 231844Z 2319/2407 30010KT P6SM FEW040 SCT100 BKN250 
     TEMPO 2319/2407 SCT040 BKN100 
     BECMG 2400/2402 32005KT RMK NXT FCST BY 240100Z
       
TAF CYQL 232340Z 2400/2412 29010G20KT P6SM SCT100 
     TEMPO 2400/2404 BKN100 
     FM240400 26012KT P6SM SCT240 
     BECMG 2406/2408 23010KT RMK NXT FCST BY 240600Z
       
TAF CYLL 232340Z 2400/2412 27012KT P6SM SCT100 
     TEMPO 2400/2403 BKN100 
     FM240300 30006KT P6SM SCT100 
     BECMG 2404/2406 08008KT RMK NXT FCST BY 240600Z
       
TAF CYXU 232340Z 2400/2424 30010KT P6SM FEW060 BKN260 
     FM240200 VRB03KT P6SM FEW040 
     FM241200 07007KT P6SM FEW140 
     FM241700 08008KT P6SM FEW040 SCT120 RMK NXT FCST BY 240600Z
       
TAF CYBX 231940Z 2320/2408 36015KT P6SM SCT040 
     BECMG 2322/2324 34008KT RMK NXT FCST BY 240200Z
       
TAF CYYL 231840Z 2319/2407 31015G25KT P6SM BKN040 
     FM240300 35010KT P6SM BKN040 
     TEMPO 2403/2407 SCT040 RMK FCST BASED ON AUTO OBS. NXT FCST BY 240100Z
       
TAF CYZY 231840Z 2319/2407 20010KT P6SM SCT060 BKN140 
     TEMPO 2319/2322 P6SM -SHRA BKN050 
     FM232200 20010KT P6SM BKN060 
     TEMPO 2322/2404 P6SM -SHRA 
     BECMG 2402/2404 VRB03KT RMK FCST BASED ON AUTO OBS. NXT FCST BY 240100Z
       
TAF CYSP 231340Z 2314/2321 VRB03KT P6SM FEW012 
     BECMG 2318/2320 21008KT SKC RMK NXT FCST BY 241400Z
       
TAF CZMT 231840Z 2319/2324 32010KT P6SM BKN030 
     TEMPO 2319/2324 5SM -SHRA BR BKN020 RMK NXT FCST BY 241400Z
       
TAF CYMA 232340Z 2400/2412 05008KT P6SM BKN050 
     TEMPO 2400/2403 P6SM -SHRA SCT020 OVC040 
     FM240300 05006KT P6SM SCT060 
     TEMPO 2403/2409 BKN040 
     FM240900 VRB03KT P6SM SCT020 BKN090 
     TEMPO 2409/2412 3SM -SHRA BR SCT012 BKN020 RMK NXT FCST BY 240600Z
       
TAF CYXH 232340Z 2400/2412 30008KT P6SM SCT120 
     TEMPO 2400/2403 BKN120 RMK NXT FCST BY 240600Z
       
TAF CYQM 232340Z 2400/2424 03010KT P6SM FEW040 SCT260 
     BECMG 2403/2405 VRB03KT 
     FM241500 04012KT P6SM FEW020 RMK NXT FCST BY 240600Z
       
TAF CYYY 231940Z 2320/2408 27008KT P6SM BKN060 
     TEMPO 2320/2324 SCT060 
     FM240000 25008KT P6SM FEW040 
     BECMG 2401/2403 23007KT RMK NXT FCST BY 240200Z
       
TAF CYUL 232340Z 2400/2424 33005KT P6SM BKN080 
     BECMG 2402/2404 07006KT FEW080 
     FM240400 07006KT P6SM FEW080 
     BECMG 2412/2414 07008KT 
     FM241700 08009KT P6SM BKN160 
     BECMG 2422/2424 FEW200 RMK NXT FCST BY 240300Z
       
TAF CYMX 232340Z 2400/2424 VRB03KT P6SM BKN080 BKN120 
     FM240500 03005KT P6SM FEW070 FEW250 
     FM241700 08006KT P6SM BKN160 
     BECMG 2422/2424 FEW200 RMK NXT FCST BY 240600Z
       
TAF CYHU 232340Z 2400/2424 32005KT P6SM BKN090 
     FM240400 05005KT P6SM FEW080 
     FM241700 07008KT P6SM BKN160 
     BECMG 2422/2424 FEW200 RMK FCST BASED ON AUTO OBS. NXT FCST BY 240600Z
       
TAF CYQA 231940Z 2320/2402 33008KT P6SM BKN070 
     BECMG 2322/2324 FEW060 
     BECMG 2400/2402 VRB03KT RMK FCST BASED ON AUTO OBS. NXT FCST BY 241200Z
       
TAF CYCD 232340Z 2400/2404 36005KT P6SM SCT050 SCT080 
     TEMPO 2400/2404 P6SM -SHRA BKN070 BKN120 RMK NXT FCST BY 241500Z
       
TAF CYNA 231940Z 2320/2408 33012G22KT P6SM SCT050 
     TEMPO 2320/2324 BKN050 
     FM240000 35010KT P6SM FEW040 
     BECMG 2401/2403 VRB03KT RMK FCST BASED ON AUTO OBS. NXT FCST BY 240200Z
       
TAF CYVQ 232340Z 2400/2412 VRB03KT P6SM SCT050 BKN070 
     TEMPO 2400/2407 BKN050 
     FM240700 10005KT P6SM SCT060 BKN100 RMK NXT FCST BY 240600Z
       
TAF CYQW 232340Z 2400/2412 25012G22KT P6SM BKN100 
     TEMPO 2400/2408 SCT100 
     BECMG 2403/2405 11006KT 
     FM240800 11010KT P6SM FEW100 RMK FCST BASED ON AUTO OBS. NXT FCST BY
240600Z
       
TAF CYYB 231940Z 2320/2408 21005KT P6SM BKN060 
     FM240100 VRB03KT P6SM SCT060 
     FM240300 02006KT P6SM FEW060 RMK NXT FCST BY 240200Z
       
TAF CYOC 231840Z 2319/2401 04008KT P6SM BKN030 
     FM232100 VRB03KT P6SM SCT040 
     TEMPO 2321/2401 BKN030 
     BECMG 2322/2324 10006KT RMK NXT FCST BY 241500Z
       
TAF CYOO 231940Z 2320/2408 19008KT P6SM SCT060 
     TEMPO 2320/2324 BKN060 
     FM240000 VRB03KT P6SM SCT060 RMK FCST BASED ON AUTO OBS. NXT FCST BY
240200Z
       
TAF CYOW 232340Z 2400/2424 VRB03KT P6SM BKN060 
     FM240300 VRB03KT P6SM FEW220 
     BECMG 2412/2414 10010KT SCT180 
     FM241700 10009KT P6SM BKN150 
     BECMG 2422/2424 FEW200 RMK NXT FCST BY 240300Z
       
TAF CYXP 231840Z 2319/2322 30012G22KT P6SM SCT030 
     TEMPO 2319/2322 5SM -SN BKN030 RMK NXT FCST BY 241300Z
       
TAF CYPC 231840Z 2319/2323 28012KT P6SM OVC020 
     TEMPO 2319/2323 OVC025 RMK NXT FCST BY 241500Z
       
TAF CYPE 231840Z 2319/2407 VRB03KT P6SM FEW070 SCT210 
     BECMG 2319/2320 30010KT 
     FM232300 30010KT P6SM SCT100 BKN240 
     FM240100 30010KT P6SM BKN100 
     TEMPO 2401/2407 P6SM -SHRA BKN080 
     BECMG 2403/2405 07008KT RMK NXT FCST BY 240100Z
       
TAF CYYF 231840Z 2319/2407 34010KT P6SM FEW050 BKN100 
     TEMPO 2319/2404 P6SM -SHRA BKN050 OVC100 
     FM240400 34008KT P6SM SCT080 RMK NXT FCST BY 240100Z
       
TAF CYPL 231940Z 2320/2408 23015G25KT P6SM SCT080 
     TEMPO 2320/2402 BKN080 
     BECMG 2400/2402 22010KT RMK FCST BASED ON AUTO OBS. T SENSOR INOP. PCPN
SENSOR INOP. NXT FCST BY 240200Z
       
TAF CYIO 231840Z 2319/2407 26008KT P6SM SCT020 BKN050 
     TEMPO 2319/2401 5SM -SN BKN020 BKN050 
     FM240100 19005KT P6SM FEW020 SCT050 RMK FCST BASED ON OBS BY OTHER SRCS.
NXT FCST BY 240100Z
       
TAF CYZT 231840Z 2319/2407 34010KT P6SM BKN030 
     TEMPO 2319/2401 FEW008 BKN020 
     FM240100 34010KT P6SM SCT025 
     TEMPO 2401/2407 FEW008 BKN020 
     BECMG 2404/2406 VRB03KT RMK NXT FCST BY 240100Z
       
TAF CYPA 231843Z 2319/2407 VRB03KT P6SM SCT100 BKN250 
     TEMPO 2319/2403 BKN100 
     BECMG 2321/2323 32008KT 
     FM240300 02008KT P6SM BKN080 
     TEMPO 2403/2407 P6SM -SHRA RMK NXT FCST BY 240100Z
       
TAF CYXS 231840Z 2319/2407 23010KT P6SM SCT050 BKN080 
     TEMPO 2319/2402 P6SM -SHRA BKN040 
     FM240200 30010KT P6SM SCT080 
     TEMPO 2402/2407 P6SM -SHRA BKN060 
     BECMG 2404/2406 24006KT RMK FCST BASED ON AUTO OBS. NXT FCST BY 240100Z
       
TAF CYPR 231840Z 2319/2407 26006KT P6SM SCT015 BKN030 
     TEMPO 2319/2323 6SM -SHRA BR FEW008 BKN015 OVC025 
     FM232300 26006KT P6SM SCT020 
     TEMPO 2323/2407 BKN020 RMK FCST BASED ON AUTO OBS. NXT FCST BY 240100Z
       
TAF CYPX 232343Z 2400/2412 24010KT P6SM -SN OVC020 
     TEMPO 2400/2404 3SM -SN BR BKN010 OVC020 
     BECMG 2402/2404 15010KT 
     FM240400 15010KT P6SM SCT020 BKN060 
     TEMPO 2404/2410 5SM -SN BKN020 OVC060 
     FM241000 14020G30KT P6SM SCT020 OVC060 
     TEMPO 2410/2412 5SM -SN BKN020 OVC060 
     PROB40 2410/2412 2SM -SHSN -FZRA BR RMK FCST BASED ON AUTO OBS. NXT FCST BY
240600Z
       
TAF AMD CYVM 240010Z 2400/2407 14015KT P6SM SCT020 
     TEMPO 2400/2402 2 1/2SM -SN BKN020 
     FM240200 14010KT P6SM SCT020 
     TEMPO 2402/2407 BKN020 
     BECMG 2405/2407 VRB03KT RMK NXT FCST BY 240100Z
       
TAF CYQB 232340Z 2400/2424 03007KT P6SM SCT060 BKN220 
     FM240300 VRB03KT P6SM SKC 
     FM241700 09007KT P6SM BKN180 
     BECMG 2422/2424 FEW220 RMK NXT FCST BY 240600Z
       
TAF CYQZ 231840Z 2319/2406 26008KT P6SM SCT050 BKN080 
     TEMPO 2319/2404 P6SM -SHRA BKN050 
     BECMG 2322/2324 34008KT 
     FM240400 VRB03KT P6SM SCT080 
     TEMPO 2404/2406 2SM -SHRA BR BKN070 
     PROB30 2404/2406 1SM BR VV008 RMK FCST BASED ON AUTO OBS. NXT FCST BY
240100Z
       
TAF CYRT 232340Z 2400/2412 05010KT P6SM -SHSN BKN020 
     TEMPO 2400/2403 P6SM NSW BKN030 BKN100 
     BECMG 2401/2403 01010KT 
     FM240300 35010KT P6SM BKN025 
     TEMPO 2403/2412 P6SM -SN BKN020 RMK NXT FCST BY 240600Z
       
TAF CYQF 232340Z 2400/2412 33006KT P6SM SCT100 
     TEMPO 2400/2402 BKN100 
     FM240200 30008KT P6SM BKN080 
     TEMPO 2402/2412 P6SM VCSH RMK FCST BASED ON AUTO OBS. NXT FCST BY 240600Z
       
TAF CYRL 231940Z 2320/2402 22008G18KT P6SM SCT070 
     TEMPO 2320/2402 P6SM -SHRA BKN070 RMK NXT FCST BY 241100Z
       
TAF CYQR 232340Z 2400/2424 VRB03KT P6SM FEW090 
     BECMG 2402/2404 15008KT 
     FM242000 14015G25KT P6SM SCT110 RMK NXT FCST BY 240600Z
       
TAF CYRB 232340Z 2400/2424 34020G30KT P6SM SCT012 BKN060 
     TEMPO 2400/2404 2SM -SN BLSN BKN012 BKN040 
     BECMG 2402/2404 36015KT 
     FM240400 36015KT P6SM SCT010 BKN040 
     TEMPO 2404/2424 3SM -SN SCT008 BKN010 BKN040 
     BECMG 2418/2420 05010KT RMK NXT FCST BY 240600Z
       
TAF CYRJ 231940Z 2320/2402 VRB03KT P6SM BKN050 
     TEMPO 2320/2324 SCT050 
     FM240000 VRB03KT P6SM FEW060 RMK NXT FCST BY 241200Z
       
TAF CYUY 232340Z 2400/2412 VRB03KT P6SM FEW070 
     PROB30 2408/2411 2 1/2SM BR FEW004 RMK NXT FCST BY 240600Z
       
TAF AMD CYSY 232033Z 2320/2323 30020KT P6SM SCT006 BKN090 
     TEMPO 2320/2323 5SM -SHSN BKN006 RMK NXT FCST BY 241500Z
       
TAF AMD CYSJ 232344Z 2400/2412 VRB03KT P6SM FEW050 
     TEMPO 2400/2408 BKN050 
     FM240800 VRB03KT P6SM FEW050 RMK NXT FCST BY 240600Z
       
TAF CYZP 231840Z 2319/2407 25006KT P6SM SCT020 BKN040 
     TEMPO 2319/2407 P6SM -SHRA BKN020 OVC040 RMK FCST BASED ON AUTO OBS. NXT
FCST BY 240100Z
       
TAF CYXE 232340Z 2400/2424 30010KT P6SM BKN100 
     TEMPO 2400/2406 SCT100 
     BECMG 2402/2404 24006KT 
     FM240600 18006KT P6SM SCT100 
     FM241600 16010G20KT P6SM FEW080 
     FM242100 17015G25KT P6SM BKN110 RMK NXT FCST BY 240600Z
       
TAF CYAM 231941Z 2320/2408 29012KT P6SM FEW060 FEW220 
     BECMG 2400/2402 VRB03KT RMK NXT FCST BY 240200Z
       
TAF CYKL 231940Z 2320/2408 29012G22KT P6SM FEW050 
     BECMG 2323/2401 24005KT 
     FM240600 24005KT P6SM BKN040 BKN120 RMK FCST BASED ON AUTO OBS. NXT FCST BY
240200Z
       
TAF CYZV 232340Z 2400/2424 29012G22KT P6SM SCT060 
     FM240200 VRB03KT P6SM FEW040 
     FM241800 22010KT P6SM SCT060 RMK NXT FCST BY 240600Z
       
TAF CYSC 232340Z 2400/2403 33005KT P6SM BKN060 
     TEMPO 2400/2403 SCT060 RMK FCST BASED ON AUTO OBS. NXT FCST BY 241100Z
       
TAF CYXL 231940Z 2320/2408 23010G20KT P6SM SCT060 BKN240 
     TEMPO 2320/2402 P6SM -SHRA BKN060 BKN240 
     BECMG 2400/2402 20006KT RMK NXT FCST BY 240200Z
       
TAF CYZH 231840Z 2319/2407 36006KT P6SM SCT120 
     BECMG 2319/2321 30008KT 
     FM240200 26005KT P6SM SCT080 
     TEMPO 2402/2407 P6SM VCSH BKN080 RMK FCST BASED ON AUTO OBS. NXT FCST BY
240100Z
       
TAF CYYD 231840Z 2319/2406 VRB03KT P6SM SCT040 BKN080 
     TEMPO 2319/2403 5SM -SHRA BR BKN030 
     FM240300 33008KT P6SM BKN050 RMK NXT FCST BY 240100Z
       
TAF CYAY 231940Z 2320/2408 33015G25KT P6SM SCT030 
     TEMPO 2320/2324 BKN030 
     BECMG 2320/2322 31015KT 
     FM240000 31008KT P6SM SCT020 
     TEMPO 2400/2408 BKN020 RMK FCST BASED ON AUTO OBS. NXT FCST BY 240200Z
       
TAF CYYT 232340Z 2400/2424 27015G25KT P6SM -SHRA OVC012 
     TEMPO 2400/2402 5SM -SHRA BR BKN003 OVC012 
     BECMG 2400/2402 02012KT 
     FM240200 02015KT 2SM -SHRA BR OVC003 
     TEMPO 2402/2408 6SM -SHRA BR OVC004 
     FM240800 02015KT 5SM -SHRA BR OVC003 
     TEMPO 2408/2411 P6SM NSW OVC008 
     FM241100 02015KT P6SM OVC008 
     FM241500 03015KT P6SM BKN012 
     FM241700 03015KT P6SM SCT015 RMK NXT FCST BY 240600Z
       
TAF CYJT 232340Z 2400/2424 29008KT P6SM FEW012 
     TEMPO 2400/2402 BKN012 
     BECMG 2400/2402 01008KT 
     FM241200 32012KT P6SM FEW030 RMK NXT FCST BY 240600Z
       
TAF CYSB 231940Z 2320/2408 29005KT P6SM BKN060 
     FM240000 VRB03KT P6SM SCT060 
     TEMPO 2400/2402 BKN060 RMK NXT FCST BY 240200Z
       
TAF CYYN 232340Z 2400/2412 25012G22KT P6SM FEW090 
     BECMG 2402/2404 18010KT RMK FCST BASED ON AUTO OBS. NXT FCST BY 240600Z
       
TAF CYQY 232340Z 2400/2412 35012G22KT P6SM SCT020 
     TEMPO 2400/2403 BKN020 
     FM240300 35012G22KT P6SM FEW020 RMK NXT FCST BY 240600Z
       
TAF CYYH 232340Z 2400/2412 29015KT 3SM -SN SCT009 BKN015 OVC030 
     TEMPO 2400/2412 P6SM NSW FEW009 SCT015 BKN030 
     PROB40 2400/2404 29015G25KT 2SM -SN BLSN RMK NXT FCST BY 240600Z
       
TAF CYXT 231840Z 2319/2407 18010KT P6SM SCT012 BKN040 
     TEMPO 2319/2321 P6SM -SHRA BKN012 BKN030 
     FM232100 22012KT P6SM BKN040 
     TEMPO 2321/2324 P6SM -SHRA 
     FM240000 24012KT P6SM SCT040 
     BECMG 2403/2405 21008KT RMK NXT FCST BY 240100Z
       
TAF CYZW 231740Z 2318/2324 17006KT P6SM SCT030 OVC250 
     TEMPO 2318/2324 SCT015 BKN020 
     BECMG 2318/2320 24010KT RMK NXT FCST BY 241800Z
       
TAF CYQD 231840Z 2319/2407 22008KT P6SM -RA OVC060 
     TEMPO 2319/2321 P6SM NSW BKN020 OVC060 
     FM232100 29012KT P6SM FEW020 SCT060 BKN250 
     BECMG 2400/2402 29006KT 
     FM240400 28005KT P6SM BKN070 RMK FCST BASED ON AUTO OBS. NXT FCST BY
240100Z
       
TAF CYTH 231840Z 2319/2407 24010KT P6SM BKN040 
     TEMPO 2319/2322 BKN020 OVC040 
     BECMG 2320/2322 28012G22KT 
     FM232200 28014G24KT P6SM BKN040 
     TEMPO 2322/2403 BKN060 
     FM240300 31010G20KT P6SM FEW040 RMK NXT FCST BY 240100Z
       
TAF CYQT 231940Z 2320/2408 17010KT P6SM FEW070 
     TEMPO 2320/2402 BKN070 
     BECMG 2400/2402 VRB03KT RMK NXT FCST BY 240200Z
       
TAF CYTS 231941Z 2320/2408 VRB03KT P6SM SCT060 
     BECMG 2400/2402 FEW060 RMK NXT FCST BY 240200Z
       
TAF CYAZ 231840Z 2319/2401 28005KT P6SM SCT015 BKN025 
     TEMPO 2319/2322 5SM -RA BR BKN015 OVC025 
     BECMG 2319/2321 29012KT 
     FM232200 29012KT P6SM SCT025 
     TEMPO 2322/2401 BKN020 RMK NXT FCST BY 241500Z
       
TAF CYTZ 231940Z 2320/2420 17008KT P6SM SCT070 
     TEMPO 2320/2322 BKN070 
     BECMG 2322/2324 VRB03KT 
     FM241400 07008KT P6SM FEW140 RMK FCST BASED ON AUTO OBS. NXT FCST BY
240200Z
       
TAF CYYZ 232340Z 2400/2506 14007KT P6SM FEW070 BKN260 
     FM240300 01006KT P6SM FEW050 
     FM241500 09008KT P6SM FEW150 
     FM241800 11008KT P6SM BKN140 
     FM250000 13008KT P6SM FEW140 
     FM250300 36006KT P6SM FEW060 RMK NXT FCST BY 240300Z
       
TAF CYTR 232340Z 2400/2424 VRB03KT P6SM FEW050 SCT070 BKN250 
     FM240800 VRB03KT P6SM FEW050 BKN150 
     FM241200 06005KT P6SM SCT050 BKN150 
     BECMG 2416/2418 21008KT 
     BECMG 2422/2424 VRB03KT RMK NXT FCST BY 240600Z
       
TAF CYRQ 231941Z 2320/2408 35008KT P6SM BKN070 
     FM240100 02005KT P6SM FEW070 RMK FCST BASED ON AUTO OBS. NXT FCST BY
240200Z
       
TAF AMD CYUB 231952Z 2319/2405 29008KT P6SM SCT012 
     TEMPO 2319/2405 BKN012 RMK NXT FCST BY 240100Z
       
TAF CYVO 232340Z 2400/2412 VRB03KT P6SM FEW070 
     BECMG 2410/2412 17007KT RMK NXT FCST BY 240600Z
       
TAF CYVR 232340Z 2400/2506 24010KT P6SM SCT050 SCT080 
     BECMG 2409/2411 10008KT 
     FM241200 10010KT P6SM FEW030 BKN180 
     FM241800 12010KT P6SM FEW020 SCT040 BKN100 
     FM250300 12006KT P6SM -RA SCT020 BKN050 BKN080 RMK NXT FCST BY 240300Z
       
TAF CYYJ 232340Z 2400/2424 10008KT P6SM SCT050 SCT080 
     TEMPO 2400/2406 P6SM -SHRA BKN050 BKN080 
     FM240600 VRB03KT P6SM FEW030 FEW150 
     FM241500 12006KT P6SM FEW030 BKN120 
     FM242100 14012KT P6SM BKN060 RMK NXT FCST BY 240600Z
       
TAF CYWK 231940Z 2320/2408 29010G20KT P6SM SCT040 
     TEMPO 2320/2322 BKN040 
     BECMG 2323/2401 22005KT 
     FM240500 22005KT P6SM -SHSN BKN040 BKN120 RMK NXT FCST BY 240200Z
       
TAF CYQH 232340Z 2400/2412 26008KT P6SM BKN080 
     TEMPO 2400/2408 P6SM -SHRA BKN070 
     FM240800 VRB03KT P6SM BKN060 
     TEMPO 2408/2412 6SM -SHRA BR BKN050 RMK NXT FCST BY 240600Z
       
TAF CYXZ 231941Z 2320/2324 20005KT P6SM FEW030 
     BECMG 2322/2324 VRB03KT RMK NXT FCST BY 241300Z
       
TAF CYZU 231840Z 2319/2323 30010KT P6SM SCT080 
     TEMPO 2319/2321 BKN080 
     FM232100 30010KT P6SM BKN090 RMK NXT FCST BY 241400Z
       
TAF CYXY 232340Z 2400/2424 20012KT P6SM SCT070 BKN100 
     TEMPO 2400/2409 P6SM -SHRA BKN050 
     FM240900 17008KT P6SM SCT050 BKN150 
     TEMPO 2409/2415 BKN050 
     FM241500 18006KT P6SM BKN060 
     TEMPO 2415/2424 P6SM -SHRA BKN050 RMK NXT FCST BY 240600Z
       
TAF CYVV 231940Z 2320/2323 31005KT P6SM SCT030 BKN250 RMK NXT FCST BY 241100Z
       
TAF AMD CYWL 232329Z 2323/2407 28010G20KT P6SM SCT030 BKN060 
     TEMPO 2323/2402 P6SM -SHRA BKN020 
     PROB30 2323/2402 3SM TSRAGR BR BKN020 OVC040CB 
     FM240200 32008KT P6SM SCT040 SCT100 
     TEMPO 2402/2407 5SM -SHRA BR SCT012 BKN040 
     BECMG 2404/2406 VRB03KT RMK NXT FCST BY 240100Z
       
TAF CYQG 232340Z 2400/2424 05010KT P6SM SCT060 
     TEMPO 2400/2402 BKN060 
     FM240200 03008KT P6SM FEW050 
     FM241500 04010KT P6SM FEW120 RMK FCST BASED ON AUTO OBS. NXT FCST BY
240600Z
       
TAF CYWG 232340Z 2400/2424 21012G22KT P6SM BKN110 
     TEMPO 2400/2403 P6SM -SHRA BKN070 
     FM240300 20012KT P6SM FEW100 SCT250 
     FM241800 20015KT P6SM SCT070 RMK NXT FCST BY 240600Z
       
TAF CYQI 232340Z 2400/2412 36010G20KT P6SM FEW050 
     TEMPO 2400/2408 BKN040 
     BECMG 2404/2406 VRB03KT 
     FM240800 02008KT P6SM FEW040 RMK NXT FCST BY 240600Z
       
TAF CYZF 232340Z 2400/2424 17010KT P6SM FEW040 BKN070 
     FM240800 20006KT P6SM SKC RMK NXT FCST BY 240600Z
       
TAF CYQV 232340Z 2400/2406 21008KT P6SM SCT090 RMK FCST BASED ON AUTO OBS. NXT
FCST BY 241200Z